SP3VKM-10 Weather Reports


time (UTC)temp
C
wind
direction
speed
KPH
gust
KPH
rain 1hr
cm
rain 24hr
cm
rain mn
cm
humidity
%
barometer
mb
20200606165110 18 224 8.0 19.3 0.00 0.56 0.00 66 1006.2
20200606163110 18 163 9.7 17.7 0.00 0.56 0.00 65 1006.0
20200606161110 18 196 8.0 16.1 0.00 0.56 0.00 64 1006.2
20200606155110 18 163 6.4 11.3 0.00 0.56 0.00 63 1006.2
20200606153110 18 234 9.7 14.5 0.00 0.56 0.00 62 1006.0
20200606151111 18 210 9.7 20.9 0.00 0.56 0.00 61 1005.8
20200606145111 19 187 11.3 25.7 0.00 0.56 0.00 60 1005.7
20200606143203 19 183 9.7 20.9 0.00 0.56 0.00 58 1005.6
20200606141110 19 154 8.0 19.3 0.00 0.56 0.00 59 1005.8
20200606135110 18 236 8.0 17.7 0.00 0.56 0.00 60 1005.8
20200606133111 18 233 9.7 14.5 0.00 0.64 0.00 60 1005.7
20200606131110 18 183 9.7 19.3 0.00 0.64 0.00 58 1005.8
20200606125110 18 214 9.7 16.1 0.00 0.71 0.00 58 1005.7
20200606123110 18 205 11.3 20.9 0.00 0.71 0.00 58 1005.8
20200606121110 20 160 8.0 17.7 0.00 0.76 0.00 56 1005.7
20200606115110 20 218 8.0 19.3 0.00 0.76 0.00 60 1005.7
20200606113110 18 224 8.0 16.1 0.00 0.84 0.00 61 1005.6
20200606111110 18 242 6.4 9.7 0.00 0.91 0.00 61 1005.7
20200606105110 17 245 9.7 17.7 0.00 0.99 0.00 61 1005.7
20200606103111 17 222 9.7 19.3 0.00 1.07 0.00 61 1005.7
20200606101110 17 202 9.7 11.3 0.00 1.07 0.00 64 1005.4
20200606095110 16 197 11.3 27.4 0.00 1.07 0.00 64 1005.4
20200606093111 16 230 11.3 24.1 0.00 1.07 0.00 65 1005.3
20200606091111 16 237 11.3 24.1 0.00 1.07 0.00 64 1005.3
20200606085110 16 213 8.0 16.1 0.00 1.07 0.00 65 1004.8
20200606083110 16 233 9.7 25.7 0.00 1.07 0.00 65 1004.9
20200606081110 16 225 9.7 19.3 0.00 1.07 0.00 65 1004.7
20200606075111 16 230 9.7 20.9 0.00 1.07 0.00 65 1004.7
20200606073111 16 224 11.3 17.7 0.00 1.07 0.00 67 1004.3
20200606071110 15 255 9.7 14.5 0.00 1.07 0.00 69 1004.0
20200606065111 15 245 11.3 17.7 0.00 1.07 0.00 67 1004.0
20200606063110 15 220 11.3 22.5 0.00 1.12 0.00 67 1003.7
20200606061109 15 236 11.3 12.9 0.00 1.12 0.00 70 1003.6
20200606055111 14 261 11.3 24.1 0.00 1.12 0.00 72 1003.5
20200606053110 14 250 9.7 14.5 0.00 1.12 0.00 73 1002.9
20200606051110 13 244 6.4 16.1 0.00 1.12 0.00 73 1002.8
20200606045110 13 234 6.4 12.9 0.00 1.12 0.00 72 1002.2
20200606043111 12 245 8.0 11.3 0.00 1.12 0.00 71 1002.0
20200606041111 11 228 8.0 17.7 0.00 1.35 0.00 70 1002.0
20200606035112 11 236 6.4 9.7 0.00 1.35 0.00 70 1001.8
20200606033112 11 245 6.4 12.9 0.00 1.35 0.00 70 1001.3
20200606031113 11 220 6.4 12.9 0.00 1.35 0.00 70 1001.0
20200606025112 11 248 6.4 12.9 0.00 1.35 0.00 71 1000.7
20200606023115 11 226 8.0 12.9 0.00 1.35 0.00 70 1000.4
20200606021113 11 228 6.4 12.9 0.00 1.35 0.00 70 1000.1
20200606015120 12 224 8.0 17.7 0.00 1.35 0.00 70 999.8
20200606013111 12 212 6.4 14.5 0.00 1.35 0.00 70 999.7
20200606011112 12 162 6.4 11.3 0.00 1.35 0.00 70 999.3
20200606005113 12 202 8.0 14.5 0.00 1.35 0.00 70 999.0
20200606003109 12 204 9.7 22.5 0.00 1.35 0.00 70 999.1
20200606001110 12 164 6.4 22.5 0.00 1.35 0.00 69 999.1
20200605235111 12 4.8 12.9 0.00 1.35 0.00 69 999.0
20200605233115 12 180 4.8 12.9 0.00 1.35 0.00 68 998.9
20200605231116 12 4.8 12.9 0.00 1.35 0.00 67 998.8
20200605225115 11 3.2 11.3 0.00 1.35 0.00 67 998.8
20200605223115 11 1.6 4.8 0.00 1.35 0.00 67 998.8
20200605221110 11 1.6 4.8 0.00 1.35 0.00 67 998.8
20200605215112 11 0.0 4.8 0.00 1.35 1.35 67 998.6
20200605213114 12 0.0 3.2 0.00 1.35 1.35 68 998.6
20200605211111 12 1.6 4.8 0.00 1.35 1.35 68 998.5
20200605205110 12 3.2 4.8 0.08 1.35 1.35 67 998.6
20200605203112 13 0.0 1.6 0.56 1.35 1.35 67 998.5
20200605201112 13 0.0 3.2 0.56 1.35 1.35 68 998.6
20200605195111 13 206 6.4 14.5 0.48 1.27 1.27 69 999.0
20200605193110 15 1.6 4.8 0.00 0.76 0.76 70 998.2
20200605191111 15 3.2 9.7 0.00 0.76 0.76 71 997.9
20200605185110 15 3.2 8.0 0.00 0.76 0.76 71 997.8
20200605183111 16 3.2 6.4 0.00 0.76 0.76 71 997.9
20200605181110 16 4.8 12.9 0.00 0.76 0.76 72 997.8
20200605175110 16 136 6.4 16.1 0.00 0.76 0.76 72 997.7
20200605173111 16 128 6.4 9.7 0.00 0.76 0.76 72 997.7
20200605171111 16 3.2 8.0 0.00 0.76 0.76 72 997.8